Hillingdon, United Kingdom

10:28 AM BST on July 29, 2016 (GMT +0100)
Ruislip | | Change Station

Elev 135 ft 51.56 °N, 0.40 °W | Updated 210 days ago

Cloudy
Cloudy
71 °F
Feels Like 71 °F
N
12
Wind Variable Wind from WSW
Gusts mph

Today
High -- | Low -- °F
--% Chance of Precip.
Yesterday
High -- | Low -- °F
Precip. -- in
Pressure 29.86 in
Visibility 6.2 miles
Clouds Mostly Cloudy 1200 ft
Dew Point 56 °F
Humidity 59%
Rainfall in
Snow Depth Not available.
5:21 AM 8:53 PM
Waning Crescent, 23% visible
METAR EGLL 290920Z AUTO 24009KT 9999 BKN012 19/15 Q1011 TEMPO SCT012
Pressure 29.86 in
Visibility 6.2 miles
Clouds Mostly Cloudy 1200 ft
Dew Point 56 °F
Humidity 59%
Rainfall in
Snow Depth Not available.
5:21 AM 8:53 PM
Waning Crescent, 23% visible
METAR EGLL 290920Z AUTO 24009KT 9999 BKN012 19/15 Q1011 TEMPO SCT012

10-Day Weather Forecast

×

Almanac

Astronomy

Jul. 29, 2016 Rise Set
Actual Time
Civil Twilight
Nautical Twilight
Astronomical Twilight
Moon
Length of Visible Light
Length of Day
Tomorrow will be .
, % of the Moon is Illuminated

Today's Extremes

Country Highs Country Lows

Community

WunderPhotos

Upload Photos

1,928,300 photos uploaded!

WunderBlog® & News

Nearby

Air Quality

  Air Quality AQ Index Pollutant
Not available.

Snow Depth

Station Depth Elevation

Earthquake Activity

City Distance Mag. Time & Date
Minimum magnitude displayed is 2.5.

Coastal Water Temperatures

Place Temperature

Stations

Nearby Weather Stations

Station Location Temp. Windchill Dew Point Humidity Wind Precip. Elev Updated Type